Time,TemperatureF,DewpointF,PressureIn,WindDirection,WindDirectionDegrees,WindSpeedMPH,WindSpeedGustMPH,Humidity,HourlyPrecipIn,Conditions,Clouds,dailyrainin,SoftwareType,DateUTC
2013-01-17 00:04:00,32.0,21.0,-100.00,ENE,57,4.0,14.0,60,0.00,,,-99.99,,2013-01-17 05:04:00,
2013-01-17 00:12:00,35.0,25.0,-100.00,ENE,74,5.0,14.0,63,0.00,,,-99.99,,2013-01-17 05:12:00,
2013-01-17 00:22:00,33.0,23.0,-100.00,East,97,6.0,14.0,63,0.00,,,-99.99,,2013-01-17 05:22:00,
2013-01-17 00:33:00,34.0,25.0,-100.00,East,80,6.0,14.0,67,0.00,,,-99.99,,2013-01-17 05:33:00,
2013-01-17 00:42:00,34.0,25.0,-100.00,ENE,67,5.0,14.0,66,0.00,,,-99.99,,2013-01-17 05:42:00,
2013-01-17 00:52:00,33.0,25.0,-100.00,NNE,21,5.0,14.0,68,0.00,,,-99.99,,2013-01-17 05:52:00,
2013-01-17 01:03:00,33.0,25.0,-100.00,NE,36,5.0,14.0,68,0.00,,,-99.99,,2013-01-17 06:03:00,
2013-01-17 01:12:00,34.0,25.0,-100.00,ENE,66,4.0,14.0,68,0.00,,,-99.99,,2013-01-17 06:12:00,
2013-01-17 01:22:00,32.0,25.0,-100.00,NNE,25,5.0,14.0,69,0.00,,,-99.99,,2013-01-17 06:22:00,
2013-01-17 01:33:00,33.0,25.0,-100.00,East,81,4.0,14.0,71,0.00,,,-99.99,,2013-01-17 06:33:00,
2013-01-17 01:42:00,33.0,27.0,-100.00,ENE,64,6.0,14.0,73,0.00,,,-99.99,,2013-01-17 06:42:00,
2013-01-17 01:52:00,33.0,25.0,-100.00,East,91,6.0,14.0,71,0.00,,,-99.99,,2013-01-17 06:52:00,
2013-01-17 02:02:00,33.0,27.0,-100.00,ENE,62,3.0,14.0,72,0.00,,,-99.99,,2013-01-17 07:02:00,
2013-01-17 02:12:00,34.0,27.0,-100.00,NE,53,4.0,14.0,71,0.00,,,-99.99,,2013-01-17 07:12:00,
2013-01-17 02:22:00,33.0,25.0,-100.00,ENE,67,4.0,14.0,72,0.00,,,-99.99,,2013-01-17 07:22:00,
2013-01-17 02:33:00,35.0,28.0,-100.00,ENE,76,5.0,14.0,75,0.00,,,-99.99,,2013-01-17 07:33:00,
2013-01-17 02:42:00,34.0,28.0,-100.00,ENE,73,7.0,14.0,76,0.00,,,-99.99,,2013-01-17 07:42:00,
2013-01-17 02:52:00,34.0,28.0,-100.00,ENE,73,7.0,14.0,76,0.00,,,-99.99,,2013-01-17 07:52:00,
2013-01-17 03:02:00,36.0,30.0,-100.00,ENE,73,3.0,14.0,78,0.00,,,-99.99,,2013-01-17 08:02:00,
2013-01-17 03:12:00,34.0,28.0,-100.00,ENE,63,3.0,14.0,77,0.00,,,-99.99,,2013-01-17 08:12:00,
2013-01-17 03:22:00,33.0,28.0,-100.00,ENE,66,3.0,14.0,78,0.00,,,-99.99,,2013-01-17 08:22:00,
2013-01-17 03:32:00,33.0,28.0,-100.00,East,100,4.0,14.0,77,0.00,,,-99.99,,2013-01-17 08:32:00,
2013-01-17 03:43:00,33.0,28.0,-100.00,ESE,104,4.0,14.0,78,0.00,,,-99.99,,2013-01-17 08:43:00,
2013-01-17 03:52:00,33.0,28.0,-100.00,ENE,59,2.0,14.0,78,0.00,,,-99.99,,2013-01-17 08:52:00,
2013-01-17 04:03:00,33.0,28.0,-100.00,NNE,21,2.0,14.0,78,0.00,,,-99.99,,2013-01-17 09:03:00,
2013-01-17 04:12:00,34.0,30.0,-100.00,East,90,2.0,14.0,80,0.00,,,-99.99,,2013-01-17 09:12:00,
2013-01-17 04:22:00,33.0,28.0,-100.00,NE,46,2.0,14.0,78,0.00,,,-99.99,,2013-01-17 09:22:00,
2013-01-17 04:33:00,33.0,28.0,-100.00,East,97,2.0,14.0,80,0.00,,,-99.99,,2013-01-17 09:33:00,
2013-01-17 04:42:00,34.0,28.0,-100.00,NE,45,3.0,14.0,78,0.00,,,-99.99,,2013-01-17 09:42:00,
2013-01-17 04:52:00,34.0,30.0,-100.00,East,87,3.0,14.0,81,0.00,,,-99.99,,2013-01-17 09:52:00,
2013-01-17 05:02:00,34.0,28.0,-100.00,East,90,2.0,14.0,80,0.00,,,-99.99,,2013-01-17 10:02:00,
2013-01-17 05:12:00,34.0,28.0,-100.00,East,90,2.0,14.0,80,0.00,,,-99.99,,2013-01-17 10:12:00,
2013-01-17 05:22:00,34.0,28.0,-100.00,ENE,67,2.0,14.0,80,0.00,,,-99.99,,2013-01-17 10:22:00,
2013-01-17 05:32:00,34.0,30.0,-100.00,ENE,72,2.0,14.0,80,0.00,,,-99.99,,2013-01-17 10:32:00,
2013-01-17 05:42:00,34.0,30.0,-100.00,East,84,2.0,14.0,81,0.00,,,-99.99,,2013-01-17 10:42:00,
2013-01-17 05:52:00,33.0,28.0,-100.00,ESE,103,2.0,14.0,82,0.00,,,-99.99,,2013-01-17 10:52:00,
2013-01-17 06:03:00,34.0,30.0,-100.00,NE,52,2.0,14.0,82,0.00,,,-99.99,,2013-01-17 11:03:00,
2013-01-17 06:12:00,32.0,28.0,-100.00,ENE,72,1.0,14.0,82,0.00,,,-99.99,,2013-01-17 11:12:00,
2013-01-17 06:22:00,33.0,28.0,-100.00,ENE,63,2.0,14.0,82,0.00,,,-99.99,,2013-01-17 11:22:00,
2013-01-17 06:33:00,34.0,30.0,-100.00,East,84,1.0,14.0,84,0.00,,,-99.99,,2013-01-17 11:33:00,
2013-01-17 06:43:00,35.0,30.0,-100.00,East,81,2.0,14.0,82,0.00,,,-99.99,,2013-01-17 11:43:00,
2013-01-17 06:52:00,33.0,28.0,-100.00,East,84,2.0,14.0,82,0.00,,,-99.99,,2013-01-17 11:52:00,
2013-01-17 07:02:00,34.0,30.0,-100.00,East,81,1.0,14.0,82,0.00,,,-99.99,,2013-01-17 12:02:00,
2013-01-17 07:12:00,34.0,30.0,-100.00,East,79,1.0,14.0,82,0.00,,,-99.99,,2013-01-17 12:12:00,
2013-01-17 07:23:00,34.0,30.0,-100.00,East,93,1.0,14.0,81,0.00,,,-99.99,,2013-01-17 12:23:00,
2013-01-17 07:33:00,34.0,30.0,-100.00,East,91,2.0,14.0,81,0.00,,,-99.99,,2013-01-17 12:33:00,
2013-01-17 07:43:00,34.0,30.0,-100.00,ENE,60,2.0,14.0,81,0.00,,,-99.99,,2013-01-17 12:43:00,
2013-01-17 07:52:00,35.0,32.0,-100.00,East,100,3.0,14.0,82,0.00,,,-99.99,,2013-01-17 12:52:00,
2013-01-17 08:03:00,34.0,30.0,-100.00,ESE,105,2.0,14.0,81,0.00,,,-99.99,,2013-01-17 13:03:00,
2013-01-17 08:12:00,34.0,30.0,-100.00,ESE,105,1.0,14.0,82,0.00,,,-99.99,,2013-01-17 13:12:00,
2013-01-17 08:23:00,35.0,30.0,-100.00,ESE,105,4.0,14.0,80,0.00,,,-99.99,,2013-01-17 13:23:00,
2013-01-17 08:33:00,34.0,28.0,-100.00,ESE,117,4.0,14.0,78,0.00,,,-99.99,,2013-01-17 13:33:00,
2013-01-17 08:43:00,34.0,28.0,-100.00,ESE,103,2.0,14.0,76,0.00,,,-99.99,,2013-01-17 13:43:00,
2013-01-17 08:52:00,33.0,27.0,-100.00,East,88,3.0,14.0,75,0.00,,,-99.99,,2013-01-17 13:52:00,
2013-01-17 09:03:00,34.0,28.0,-100.00,ESE,105,2.0,14.0,77,0.00,,,-99.99,,2013-01-17 14:03:00,
2013-01-17 09:13:00,33.0,27.0,-100.00,SE,125,2.0,14.0,75,0.00,,,-99.99,,2013-01-17 14:13:00,
2013-01-17 09:23:00,34.0,25.0,-100.00,ESE,110,4.0,14.0,69,0.00,,,-99.99,,2013-01-17 14:23:00,
2013-01-17 09:33:00,35.0,27.0,-100.00,East,87,3.0,14.0,68,0.00,,,-99.99,,2013-01-17 14:33:00,
2013-01-17 09:43:00,34.0,25.0,-100.00,ESE,105,2.0,14.0,67,0.00,,,-99.99,,2013-01-17 14:43:00,
2013-01-17 09:53:00,32.0,23.0,-100.00,ESE,103,1.0,14.0,67,0.00,,,-99.99,,2013-01-17 14:53:00,
2013-01-17 10:03:00,36.0,27.0,-100.00,East,79,2.0,14.0,67,0.00,,,-99.99,,2013-01-17 15:03:00,
2013-01-17 10:13:00,35.0,27.0,-100.00,East,90,2.0,14.0,67,0.00,,,-99.99,,2013-01-17 15:13:00,
2013-01-17 10:23:00,35.0,27.0,-100.00,ESE,111,2.0,14.0,67,0.00,,,-99.99,,2013-01-17 15:23:00,
2013-01-17 10:33:00,35.0,25.0,-100.00,SE,134,3.0,14.0,64,0.00,,,-99.99,,2013-01-17 15:33:00,
2013-01-17 10:43:00,36.0,25.0,-100.00,East,94,4.0,14.0,63,0.00,,,-99.99,,2013-01-17 15:43:00,
2013-01-17 10:53:00,35.0,25.0,-100.00,ESE,111,4.0,14.0,62,0.00,,,-99.99,,2013-01-17 15:53:00,
2013-01-17 11:03:00,35.0,23.0,-100.00,East,88,3.0,14.0,58,0.00,,,-99.99,,2013-01-17 16:03:00,
2013-01-17 11:12:00,36.0,25.0,-100.00,SE,125,6.0,14.0,60,0.00,,,-99.99,,2013-01-17 16:12:00,
2013-01-17 11:23:00,36.0,25.0,-100.00,ESE,121,4.0,14.0,62,0.00,,,-99.99,,2013-01-17 16:23:00,
2013-01-17 11:33:00,36.0,25.0,-100.00,East,80,4.0,14.0,60,0.00,,,-99.99,,2013-01-17 16:33:00,
2013-01-17 11:43:00,36.0,25.0,-100.00,ESE,111,5.0,14.0,60,0.00,,,-99.99,,2013-01-17 16:43:00,
2013-01-17 11:53:00,32.0,21.0,-100.00,East,94,6.0,14.0,63,0.00,,,-99.99,,2013-01-17 16:53:00,
2013-01-17 12:03:00,35.0,25.0,-100.00,ESE,107,4.0,14.0,63,0.00,,,-99.99,,2013-01-17 17:03:00,
2013-01-17 12:13:00,35.0,25.0,-100.00,SE,135,2.0,14.0,63,0.00,,,-99.99,,2013-01-17 17:13:00,
2013-01-17 12:23:00,35.0,27.0,-100.00,SE,134,5.0,14.0,66,0.00,,,-99.99,,2013-01-17 17:23:00,
2013-01-17 12:33:00,35.0,27.0,-100.00,ESE,114,3.0,14.0,67,0.00,,,-99.99,,2013-01-17 17:33:00,
2013-01-17 12:43:00,36.0,27.0,-100.00,ESE,107,2.0,14.0,68,0.00,,,-99.99,,2013-01-17 17:43:00,
2013-01-17 12:53:00,35.0,27.0,-100.00,ESE,121,3.0,14.0,67,0.00,,,-99.99,,2013-01-17 17:53:00,
2013-01-17 13:04:00,35.0,27.0,-100.00,ESE,104,3.0,14.0,69,0.00,,,-99.99,,2013-01-17 18:04:00,
2013-01-17 13:13:00,35.0,27.0,-100.00,ESE,114,3.0,14.0,68,0.00,,,-99.99,,2013-01-17 18:13:00,
2013-01-17 13:22:00,34.0,27.0,-100.00,ESE,110,3.0,14.0,68,0.00,,,-99.99,,2013-01-17 18:22:00,
2013-01-17 13:33:00,35.0,27.0,-100.00,ESE,108,6.0,14.0,68,0.00,,,-99.99,,2013-01-17 18:33:00,
2013-01-17 13:44:00,35.0,27.0,-100.00,SE,125,4.0,14.0,67,0.00,,,-99.99,,2013-01-17 18:44:00,
2013-01-17 13:53:00,34.0,25.0,-100.00,SSE,151,4.0,14.0,67,0.00,,,-99.99,,2013-01-17 18:53:00,
2013-01-17 14:03:00,35.0,27.0,-100.00,SE,138,3.0,14.0,67,0.00,,,-99.99,,2013-01-17 19:03:00,
2013-01-17 14:13:00,35.0,27.0,-100.00,ESE,117,5.0,14.0,69,0.00,,,-99.99,,2013-01-17 19:13:00,
2013-01-17 14:23:00,35.0,27.0,-100.00,ESE,120,5.0,14.0,67,0.00,,,-99.99,,2013-01-17 19:23:00,
2013-01-17 14:33:00,36.0,27.0,-100.00,SE,129,6.0,14.0,67,0.00,,,-99.99,,2013-01-17 19:33:00,
2013-01-17 14:43:00,36.0,28.0,-100.00,ESE,110,6.0,14.0,69,0.00,,,-99.99,,2013-01-17 19:43:00,
2013-01-17 14:53:00,34.0,27.0,-100.00,ESE,122,4.0,14.0,71,0.00,,,-99.99,,2013-01-17 19:53:00,
2013-01-17 15:03:00,34.0,25.0,-100.00,East,100,6.0,14.0,68,0.00,,,-99.99,,2013-01-17 20:03:00,
2013-01-17 15:13:00,34.0,27.0,-100.00,SSE,159,4.0,14.0,71,0.00,,,-99.99,,2013-01-17 20:13:00,
2013-01-17 15:23:00,34.0,27.0,-100.00,SSE,163,5.0,14.0,72,0.00,,,-99.99,,2013-01-17 20:23:00,
2013-01-17 15:33:00,35.0,28.0,-100.00,SSW,200,6.0,14.0,72,0.00,,,-99.99,,2013-01-17 20:33:00,
2013-01-17 15:43:00,37.0,30.0,-100.00,South,173,4.0,14.0,71,0.00,,,-99.99,,2013-01-17 20:43:00,
2013-01-17 15:53:00,36.0,28.0,-100.00,SSE,168,4.0,14.0,71,0.00,,,-99.99,,2013-01-17 20:53:00,
2013-01-17 16:03:00,33.0,25.0,-100.00,SE,145,5.0,14.0,71,0.00,,,-99.99,,2013-01-17 21:03:00,
2013-01-17 16:13:00,32.0,25.0,-100.00,South,169,3.0,3.0,72,0.00,,,-99.99,,2013-01-17 21:13:00,
2013-01-17 16:23:00,32.0,25.0,-100.00,SE,125,4.0,6.0,73,0.00,,,-99.99,,2013-01-17 21:23:00,
2013-01-17 16:34:00,33.0,27.0,-100.00,SSE,159,2.0,6.0,76,0.00,,,-99.99,,2013-01-17 21:34:00,
2013-01-17 16:43:00,33.0,27.0,-100.00,SSE,160,2.0,6.0,76,0.00,,,-99.99,,2013-01-17 21:43:00,
2013-01-17 16:52:00,33.0,27.0,-100.00,ENE,63,2.0,6.0,75,0.00,,,-99.99,,2013-01-17 21:52:00,
2013-01-17 17:03:00,33.0,27.0,-100.00,East,100,2.0,6.0,73,0.00,,,-99.99,,2013-01-17 22:03:00,
2013-01-17 17:12:00,32.0,27.0,-100.00,ESE,111,2.0,6.0,76,0.00,,,-99.99,,2013-01-17 22:12:00,
2013-01-17 17:23:00,32.0,27.0,-100.00,East,90,3.0,6.0,75,0.00,,,-99.99,,2013-01-17 22:23:00,
2013-01-17 17:33:00,32.0,27.0,-100.00,SE,131,3.0,6.0,76,0.00,,,-99.99,,2013-01-17 22:33:00,
2013-01-17 17:43:00,32.0,27.0,-100.00,SE,127,3.0,6.0,75,0.00,,,-99.99,,2013-01-17 22:43:00,
2013-01-17 17:52:00,31.0,25.0,-100.00,SSE,168,2.0,6.0,73,0.00,,,-99.99,,2013-01-17 22:52:00,
2013-01-17 18:03:00,32.0,27.0,-100.00,East,79,1.0,6.0,75,0.00,,,-99.99,,2013-01-17 23:03:00,
2013-01-17 18:12:00,32.0,25.0,-100.00,SE,124,1.0,6.0,73,0.00,,,-99.99,,2013-01-17 23:12:00,
2013-01-17 18:23:00,31.0,25.0,-100.00,East,83,0.0,6.0,75,0.00,,,-99.99,,2013-01-17 23:23:00,
2013-01-17 18:33:00,31.0,25.0,-100.00,ESE,105,0.0,6.0,75,0.00,,,-99.99,,2013-01-17 23:33:00,
2013-01-17 18:43:00,31.0,25.0,-100.00,East,79,0.0,6.0,73,0.00,,,-99.99,,2013-01-17 23:43:00,
2013-01-17 18:53:00,30.0,23.0,-100.00,NNE,22,0.0,6.0,73,0.00,,,-99.99,,2013-01-17 23:53:00,
2013-01-17 19:03:00,30.0,23.0,-100.00,NNE,15,0.0,6.0,73,0.00,,,-99.99,,2013-01-18 00:03:00,
2013-01-17 19:12:00,32.0,27.0,-100.00,NNE,19,0.0,6.0,75,0.00,,,-99.99,,2013-01-18 00:12:00,
2013-01-17 19:23:00,29.0,23.0,-100.00,North,5,1.0,6.0,75,0.00,,,-99.99,,2013-01-18 00:23:00,
2013-01-17 19:33:00,32.0,27.0,-100.00,NNW,343,1.0,6.0,77,0.00,,,-99.99,,2013-01-18 00:33:00,
2013-01-17 19:43:00,31.0,25.0,-100.00,North,5,1.0,6.0,76,0.00,,,-99.99,,2013-01-18 00:43:00,
2013-01-17 19:52:00,32.0,27.0,-100.00,East,93,1.0,6.0,77,0.00,,,-99.99,,2013-01-18 00:52:00,
2013-01-17 20:03:00,31.0,27.0,-100.00,East,96,1.0,6.0,80,0.00,,,-99.99,,2013-01-18 01:03:00,
2013-01-17 20:13:00,33.0,28.0,-100.00,East,97,1.0,6.0,80,1.14,,,-99.99,,2013-01-18 01:13:00,
2013-01-17 20:23:00,29.0,25.0,-100.00,East,98,2.0,6.0,81,4.53,,,-99.99,,2013-01-18 01:23:00,
2013-01-17 20:33:00,33.0,28.0,-100.00,East,100,2.0,6.0,80,2.83,,,-99.99,,2013-01-18 01:33:00,
2013-01-17 20:43:00,27.0,23.0,-100.00,NE,38,2.0,6.0,84,2.83,,,-99.99,,2013-01-18 01:43:00,
2013-01-17 20:52:00,31.0,28.0,-100.00,East,87,2.0,6.0,84,0.00,,,-99.99,,2013-01-18 01:52:00,
2013-01-17 21:03:00,27.0,23.0,-100.00,ENE,62,2.0,6.0,84,0.00,,,-99.99,,2013-01-18 02:03:00,
2013-01-17 21:12:00,29.0,27.0,-100.00,ESE,103,1.0,6.0,88,0.00,,,-99.99,,2013-01-18 02:12:00,
2013-01-17 21:22:00,30.0,27.0,-100.00,ESE,104,1.0,6.0,86,15.31,,,-99.99,,2013-01-18 02:22:00,
2013-01-17 21:33:00,29.0,27.0,-100.00,ESE,108,2.0,6.0,86,0.00,,,-99.99,,2013-01-18 02:33:00,
2013-01-17 21:43:00,29.0,27.0,-100.00,SE,145,2.0,6.0,86,0.00,,,-99.99,,2013-01-18 02:43:00,
2013-01-17 21:52:00,30.0,27.0,-100.00,SE,131,4.0,6.0,84,0.00,,,-99.99,,2013-01-18 02:52:00,
2013-01-17 22:02:00,27.0,23.0,-100.00,SE,127,5.0,10.0,81,0.00,,,-99.99,,2013-01-18 03:02:00,
2013-01-17 22:12:00,30.0,25.0,-100.00,SE,127,6.0,10.0,76,10.79,,,-99.99,,2013-01-18 03:12:00,
2013-01-17 22:23:00,26.0,21.0,-100.00,SE,134,7.0,10.0,77,4.53,,,-99.99,,2013-01-18 03:23:00,
2013-01-17 22:33:00,27.0,21.0,-100.00,SE,146,7.0,10.0,76,2.83,,,-99.99,,2013-01-18 03:33:00,
2013-01-17 22:43:00,27.0,23.0,-100.00,SE,144,5.0,10.0,82,4.53,,,-99.99,,2013-01-18 03:43:00,
2013-01-17 22:52:00,25.0,21.0,-100.00,SE,142,7.0,10.0,84,2.83,,,-99.99,,2013-01-18 03:52:00,
2013-01-17 23:02:00,27.0,23.0,-100.00,SSE,155,8.0,12.0,81,6.22,,,-99.99,,2013-01-18 04:02:00,
2013-01-17 23:12:00,27.0,21.0,-100.00,SSE,148,7.0,12.0,78,2.83,,,-99.99,,2013-01-18 04:12:00,
2013-01-17 23:22:00,26.0,21.0,-100.00,SSE,155,8.0,12.0,75,0.00,,,-99.99,,2013-01-18 04:22:00,
2013-01-17 23:33:00,26.0,19.0,-100.00,South,169,9.0,12.0,72,7.36,,,-99.99,,2013-01-18 04:33:00,
2013-01-17 23:42:00,26.0,19.0,-100.00,SSE,153,9.0,12.0,73,2.83,,,-99.99,,2013-01-18 04:42:00,
2013-01-17 23:52:00,26.0,19.0,-100.00,SSE,153,5.0,12.0,73,1.14,,,-99.99,,2013-01-18 04:52:00,